sensor_id;sensor_type;location;lat;lon;timestamp;temperature;humidity
19829;DHT22;10075;50.924;4.396;2023-04-03T00:02:04;3.70;99.90
19829;DHT22;10075;50.924;4.396;2023-04-03T00:04:31;3.70;99.90
19829;DHT22;10075;50.924;4.396;2023-04-03T00:06:58;3.70;99.90
19829;DHT22;10075;50.924;4.396;2023-04-03T00:09:27;3.60;99.90
19829;DHT22;10075;50.924;4.396;2023-04-03T00:11:54;3.70;99.90
19829;DHT22;10075;50.924;4.396;2023-04-03T00:14:21;3.60;99.90
19829;DHT22;10075;50.924;4.396;2023-04-03T00:16:48;3.60;99.90
19829;DHT22;10075;50.924;4.396;2023-04-03T00:19:15;3.60;99.90
19829;DHT22;10075;50.924;4.396;2023-04-03T00:21:42;3.60;99.90
19829;DHT22;10075;50.924;4.396;2023-04-03T00:24:09;3.60;99.90
19829;DHT22;10075;50.924;4.396;2023-04-03T00:26:37;3.60;99.90
19829;DHT22;10075;50.924;4.396;2023-04-03T00:29:04;3.70;99.90
19829;DHT22;10075;50.924;4.396;2023-04-03T00:31:31;3.60;99.90
19829;DHT22;10075;50.924;4.396;2023-04-03T00:33:58;3.70;99.90
19829;DHT22;10075;50.924;4.396;2023-04-03T00:36:25;3.70;99.90
19829;DHT22;10075;50.924;4.396;2023-04-03T00:38:52;3.70;99.90
19829;DHT22;10075;50.924;4.396;2023-04-03T00:41:19;3.70;99.90
19829;DHT22;10075;50.924;4.396;2023-04-03T00:43:48;3.70;99.90
19829;DHT22;10075;50.924;4.396;2023-04-03T00:46:15;3.80;99.90
19829;DHT22;10075;50.924;4.396;2023-04-03T00:48:44;3.80;99.90
19829;DHT22;10075;50.924;4.396;2023-04-03T00:51:14;3.80;99.90
19829;DHT22;10075;50.924;4.396;2023-04-03T00:53:46;3.80;99.90
19829;DHT22;10075;50.924;4.396;2023-04-03T00:56:16;3.80;99.90
19829;DHT22;10075;50.924;4.396;2023-04-03T00:58:48;3.80;99.90
19829;DHT22;10075;50.924;4.396;2023-04-03T01:01:19;3.60;99.90
19829;DHT22;10075;50.924;4.396;2023-04-03T01:03:47;3.70;99.90
19829;DHT22;10075;50.924;4.396;2023-04-03T01:06:16;3.70;99.90
19829;DHT22;10075;50.924;4.396;2023-04-03T01:08:45;3.70;99.90
19829;DHT22;10075;50.924;4.396;2023-04-03T01:11:14;3.70;99.90
19829;DHT22;10075;50.924;4.396;2023-04-03T01:13:41;3.70;99.90
19829;DHT22;10075;50.924;4.396;2023-04-03T01:16:09;3.70;99.90
19829;DHT22;10075;50.924;4.396;2023-04-03T01:18:39;3.70;99.90
19829;DHT22;10075;50.924;4.396;2023-04-03T01:24:21;3.60;99.90
19829;DHT22;10075;50.924;4.396;2023-04-03T01:26:50;3.60;99.90
19829;DHT22;10075;50.924;4.396;2023-04-03T01:29:17;3.60;99.90
19829;DHT22;10075;50.924;4.396;2023-04-03T01:31:52;3.50;99.90
19829;DHT22;10075;50.924;4.396;2023-04-03T01:34:19;3.50;99.90
19829;DHT22;10075;50.924;4.396;2023-04-03T01:36:46;3.50;99.90
19829;DHT22;10075;50.924;4.396;2023-04-03T01:39:14;3.50;99.90
19829;DHT22;10075;50.924;4.396;2023-04-03T01:41:41;3.50;99.90
19829;DHT22;10075;50.924;4.396;2023-04-03T01:44:08;3.40;99.90
19829;DHT22;10075;50.924;4.396;2023-04-03T01:46:35;3.40;99.90
19829;DHT22;10075;50.924;4.396;2023-04-03T01:49:04;3.40;99.90
19829;DHT22;10075;50.924;4.396;2023-04-03T01:51:31;3.30;99.90
19829;DHT22;10075;50.924;4.396;2023-04-03T01:53:58;3.30;99.90
19829;DHT22;10075;50.924;4.396;2023-04-03T01:56:25;3.30;99.90
19829;DHT22;10075;50.924;4.396;2023-04-03T01:58:52;3.30;99.90
19829;DHT22;10075;50.924;4.396;2023-04-03T02:01:19;3.20;99.90
19829;DHT22;10075;50.924;4.396;2023-04-03T02:03:46;3.20;99.90
19829;DHT22;10075;50.924;4.396;2023-04-03T02:06:15;3.20;99.90
19829;DHT22;10075;50.924;4.396;2023-04-03T02:08:42;3.20;99.90
19829;DHT22;10075;50.924;4.396;2023-04-03T02:11:09;3.20;99.90
19829;DHT22;10075;50.924;4.396;2023-04-03T02:13:36;3.20;99.90
19829;DHT22;10075;50.924;4.396;2023-04-03T02:16:07;3.20;99.90
19829;DHT22;10075;50.924;4.396;2023-04-03T02:18:35;3.20;99.90
19829;DHT22;10075;50.924;4.396;2023-04-03T02:21:02;3.10;99.90
19829;DHT22;10075;50.924;4.396;2023-04-03T02:23:31;3.10;99.90
19829;DHT22;10075;50.924;4.396;2023-04-03T02:26:07;3.10;99.90
19829;DHT22;10075;50.924;4.396;2023-04-03T02:28:34;3.10;99.90
19829;DHT22;10075;50.924;4.396;2023-04-03T02:31:01;3.00;99.90
19829;DHT22;10075;50.924;4.396;2023-04-03T02:33:29;3.00;99.90
19829;DHT22;10075;50.924;4.396;2023-04-03T02:35:56;3.00;99.90
19829;DHT22;10075;50.924;4.396;2023-04-03T02:38:24;3.00;99.90
19829;DHT22;10075;50.924;4.396;2023-04-03T02:40:52;3.00;99.90
19829;DHT22;10075;50.924;4.396;2023-04-03T02:43:19;3.00;99.90
19829;DHT22;10075;50.924;4.396;2023-04-03T02:45:46;3.00;99.90
19829;DHT22;10075;50.924;4.396;2023-04-03T02:48:13;3.00;99.90
19829;DHT22;10075;50.924;4.396;2023-04-03T02:50:42;3.00;99.90
19829;DHT22;10075;50.924;4.396;2023-04-03T02:53:09;2.90;99.90
19829;DHT22;10075;50.924;4.396;2023-04-03T02:55:36;2.90;99.90
19829;DHT22;10075;50.924;4.396;2023-04-03T02:58:04;2.90;99.90
19829;DHT22;10075;50.924;4.396;2023-04-03T03:00:31;2.90;99.90
19829;DHT22;10075;50.924;4.396;2023-04-03T03:02:58;2.90;99.90
19829;DHT22;10075;50.924;4.396;2023-04-03T03:05:26;2.80;99.90
19829;DHT22;10075;50.924;4.396;2023-04-03T03:07:53;2.80;99.90
19829;DHT22;10075;50.924;4.396;2023-04-03T03:10:20;2.80;99.90
19829;DHT22;10075;50.924;4.396;2023-04-03T03:12:47;2.70;99.90
19829;DHT22;10075;50.924;4.396;2023-04-03T03:15:16;2.70;99.90
19829;DHT22;10075;50.924;4.396;2023-04-03T03:17:45;2.70;99.90
19829;DHT22;10075;50.924;4.396;2023-04-03T03:20:12;2.60;99.90
19829;DHT22;10075;50.924;4.396;2023-04-03T03:22:41;2.60;99.90
19829;DHT22;10075;50.924;4.396;2023-04-03T03:25:08;2.60;99.90
19829;DHT22;10075;50.924;4.396;2023-04-03T03:27:35;2.50;99.90
19829;DHT22;10075;50.924;4.396;2023-04-03T03:30:03;2.60;99.90
19829;DHT22;10075;50.924;4.396;2023-04-03T03:32:32;2.50;99.90
19829;DHT22;10075;50.924;4.396;2023-04-03T03:34:59;2.50;99.90
19829;DHT22;10075;50.924;4.396;2023-04-03T03:37:26;2.50;99.90
19829;DHT22;10075;50.924;4.396;2023-04-03T03:39:53;2.40;99.90
19829;DHT22;10075;50.924;4.396;2023-04-03T03:42:20;2.40;99.90
19829;DHT22;10075;50.924;4.396;2023-04-03T03:44:47;2.40;99.90
19829;DHT22;10075;50.924;4.396;2023-04-03T03:47:14;2.40;99.90
19829;DHT22;10075;50.924;4.396;2023-04-03T03:49:43;2.40;99.90
19829;DHT22;10075;50.924;4.396;2023-04-03T03:52:10;2.30;99.90
19829;DHT22;10075;50.924;4.396;2023-04-03T03:54:37;2.30;99.90
19829;DHT22;10075;50.924;4.396;2023-04-03T03:57:04;2.30;99.90
19829;DHT22;10075;50.924;4.396;2023-04-03T03:59:32;2.30;99.90
19829;DHT22;10075;50.924;4.396;2023-04-03T04:01:59;2.20;99.90
19829;DHT22;10075;50.924;4.396;2023-04-03T04:04:26;2.20;99.90
19829;DHT22;10075;50.924;4.396;2023-04-03T04:06:55;2.20;99.90
19829;DHT22;10075;50.924;4.396;2023-04-03T04:09:22;2.20;99.90
19829;DHT22;10075;50.924;4.396;2023-04-03T04:11:50;2.20;99.90
19829;DHT22;10075;50.924;4.396;2023-04-03T04:14:17;2.20;99.90
19829;DHT22;10075;50.924;4.396;2023-04-03T04:16:46;2.10;99.90
19829;DHT22;10075;50.924;4.396;2023-04-03T04:19:13;2.10;99.90
19829;DHT22;10075;50.924;4.396;2023-04-03T04:21:41;2.10;99.90
19829;DHT22;10075;50.924;4.396;2023-04-03T04:24:10;2.10;99.90
19829;DHT22;10075;50.924;4.396;2023-04-03T04:26:37;2.10;99.90
19829;DHT22;10075;50.924;4.396;2023-04-03T04:29:04;2.00;99.90
19829;DHT22;10075;50.924;4.396;2023-04-03T04:31:31;2.00;99.90
19829;DHT22;10075;50.924;4.396;2023-04-03T04:33:58;2.00;99.90
19829;DHT22;10075;50.924;4.396;2023-04-03T04:36:25;1.90;99.90
19829;DHT22;10075;50.924;4.396;2023-04-03T04:38:52;1.90;99.90
19829;DHT22;10075;50.924;4.396;2023-04-03T04:41:21;1.90;99.90
19829;DHT22;10075;50.924;4.396;2023-04-03T04:43:48;1.90;99.90
19829;DHT22;10075;50.924;4.396;2023-04-03T04:46:15;1.80;99.90
19829;DHT22;10075;50.924;4.396;2023-04-03T04:48:43;1.80;99.90
19829;DHT22;10075;50.924;4.396;2023-04-03T04:51:11;1.80;99.90
19829;DHT22;10075;50.924;4.396;2023-04-03T04:53:38;1.80;99.90
19829;DHT22;10075;50.924;4.396;2023-04-03T04:56:05;1.80;99.90
19829;DHT22;10075;50.924;4.396;2023-04-03T04:58:34;1.70;99.90
19829;DHT22;10075;50.924;4.396;2023-04-03T05:01:03;1.70;99.90
19829;DHT22;10075;50.924;4.396;2023-04-03T05:03:31;1.70;99.90
19829;DHT22;10075;50.924;4.396;2023-04-03T05:05:59;1.70;99.90
19829;DHT22;10075;50.924;4.396;2023-04-03T05:08:26;1.70;99.90
19829;DHT22;10075;50.924;4.396;2023-04-03T05:10:54;1.60;99.90
19829;DHT22;10075;50.924;4.396;2023-04-03T05:13:21;1.60;99.90
19829;DHT22;10075;50.924;4.396;2023-04-03T05:15:50;1.60;99.90
19829;DHT22;10075;50.924;4.396;2023-04-03T05:18:17;1.50;99.90
19829;DHT22;10075;50.924;4.396;2023-04-03T05:20:45;1.50;99.90
19829;DHT22;10075;50.924;4.396;2023-04-03T05:23:12;1.50;99.90
19829;DHT22;10075;50.924;4.396;2023-04-03T05:25:39;1.50;99.90
19829;DHT22;10075;50.924;4.396;2023-04-03T05:28:07;1.50;99.90
19829;DHT22;10075;50.924;4.396;2023-04-03T05:30:35;1.50;99.90
19829;DHT22;10075;50.924;4.396;2023-04-03T05:33:04;1.60;99.90
19829;DHT22;10075;50.924;4.396;2023-04-03T05:35:31;1.60;99.90
19829;DHT22;10075;50.924;4.396;2023-04-03T05:38:00;1.70;99.90
19829;DHT22;10075;50.924;4.396;2023-04-03T05:40:28;1.70;99.90
19829;DHT22;10075;50.924;4.396;2023-04-03T05:42:55;1.80;99.90
19829;DHT22;10075;50.924;4.396;2023-04-03T05:45:22;1.80;99.90
19829;DHT22;10075;50.924;4.396;2023-04-03T05:47:51;1.90;99.90
19829;DHT22;10075;50.924;4.396;2023-04-03T05:50:20;1.90;99.90
19829;DHT22;10075;50.924;4.396;2023-04-03T05:52:49;1.90;99.90
19829;DHT22;10075;50.924;4.396;2023-04-03T05:55:18;2.00;99.90
19829;DHT22;10075;50.924;4.396;2023-04-03T05:57:45;2.00;99.90
19829;DHT22;10075;50.924;4.396;2023-04-03T06:00:14;2.00;99.90
19829;DHT22;10075;50.924;4.396;2023-04-03T06:02:42;2.10;99.90
19829;DHT22;10075;50.924;4.396;2023-04-03T06:05:10;2.20;99.90
19829;DHT22;10075;50.924;4.396;2023-04-03T06:07:40;2.20;99.90
19829;DHT22;10075;50.924;4.396;2023-04-03T06:10:07;2.30;99.90
19829;DHT22;10075;50.924;4.396;2023-04-03T06:12:35;2.40;99.90
19829;DHT22;10075;50.924;4.396;2023-04-03T06:15:02;2.40;99.90
19829;DHT22;10075;50.924;4.396;2023-04-03T06:17:30;2.50;99.90
19829;DHT22;10075;50.924;4.396;2023-04-03T06:19:57;2.60;99.90
19829;DHT22;10075;50.924;4.396;2023-04-03T06:22:24;2.60;99.90
19829;DHT22;10075;50.924;4.396;2023-04-03T06:24:59;2.70;99.90
19829;DHT22;10075;50.924;4.396;2023-04-03T06:27:27;2.80;99.90
19829;DHT22;10075;50.924;4.396;2023-04-03T06:29:54;2.80;99.90
19829;DHT22;10075;50.924;4.396;2023-04-03T06:32:21;2.90;99.90
19829;DHT22;10075;50.924;4.396;2023-04-03T06:34:48;2.90;99.90
19829;DHT22;10075;50.924;4.396;2023-04-03T06:37:15;3.00;99.90
19829;DHT22;10075;50.924;4.396;2023-04-03T06:39:43;3.10;99.90
19829;DHT22;10075;50.924;4.396;2023-04-03T06:42:12;3.30;99.90
19829;DHT22;10075;50.924;4.396;2023-04-03T06:44:39;3.40;99.90
19829;DHT22;10075;50.924;4.396;2023-04-03T06:47:08;3.50;99.90
19829;DHT22;10075;50.924;4.396;2023-04-03T06:49:35;3.60;99.90
19829;DHT22;10075;50.924;4.396;2023-04-03T06:52:03;3.70;99.90
19829;DHT22;10075;50.924;4.396;2023-04-03T06:54:31;3.70;99.90
19829;DHT22;10075;50.924;4.396;2023-04-03T06:56:58;3.80;99.90
19829;DHT22;10075;50.924;4.396;2023-04-03T06:59:27;3.90;99.90
19829;DHT22;10075;50.924;4.396;2023-04-03T07:01:54;4.00;99.90
19829;DHT22;10075;50.924;4.396;2023-04-03T07:04:21;4.10;99.90
19829;DHT22;10075;50.924;4.396;2023-04-03T07:06:48;4.30;99.90
19829;DHT22;10075;50.924;4.396;2023-04-03T07:09:15;4.30;99.90
19829;DHT22;10075;50.924;4.396;2023-04-03T07:11:42;4.30;99.90
19829;DHT22;10075;50.924;4.396;2023-04-03T07:14:09;4.40;99.90
19829;DHT22;10075;50.924;4.396;2023-04-03T07:16:37;4.40;99.90
19829;DHT22;10075;50.924;4.396;2023-04-03T07:19:04;4.50;99.90
19829;DHT22;10075;50.924;4.396;2023-04-03T07:21:31;4.60;99.90
19829;DHT22;10075;50.924;4.396;2023-04-03T07:23:58;4.60;99.90
19829;DHT22;10075;50.924;4.396;2023-04-03T07:26:25;4.70;99.90
19829;DHT22;10075;50.924;4.396;2023-04-03T07:28:52;4.70;99.90
19829;DHT22;10075;50.924;4.396;2023-04-03T07:31:19;4.80;99.90
19829;DHT22;10075;50.924;4.396;2023-04-03T07:33:47;4.90;99.90
19829;DHT22;10075;50.924;4.396;2023-04-03T07:36:17;4.90;99.90
19829;DHT22;10075;50.924;4.396;2023-04-03T07:38:44;5.00;99.90
19829;DHT22;10075;50.924;4.396;2023-04-03T07:41:13;5.10;99.90
19829;DHT22;10075;50.924;4.396;2023-04-03T07:43:43;5.20;99.90
19829;DHT22;10075;50.924;4.396;2023-04-03T07:46:10;5.30;99.90
19829;DHT22;10075;50.924;4.396;2023-04-03T07:48:38;5.40;99.90
19829;DHT22;10075;50.924;4.396;2023-04-03T07:51:06;5.50;99.90
19829;DHT22;10075;50.924;4.396;2023-04-03T07:53:33;5.60;99.90
19829;DHT22;10075;50.924;4.396;2023-04-03T07:56:01;5.60;99.90
19829;DHT22;10075;50.924;4.396;2023-04-03T07:58:30;5.60;99.90
19829;DHT22;10075;50.924;4.396;2023-04-03T08:00:57;5.60;99.90
19829;DHT22;10075;50.924;4.396;2023-04-03T08:03:24;5.70;99.90
19829;DHT22;10075;50.924;4.396;2023-04-03T08:05:51;5.80;99.90
19829;DHT22;10075;50.924;4.396;2023-04-03T08:08:22;5.90;99.90
19829;DHT22;10075;50.924;4.396;2023-04-03T08:10:50;5.90;99.90
19829;DHT22;10075;50.924;4.396;2023-04-03T08:13:18;6.10;99.90
19829;DHT22;10075;50.924;4.396;2023-04-03T08:15:45;6.10;99.90
19829;DHT22;10075;50.924;4.396;2023-04-03T08:18:13;6.30;99.90
19829;DHT22;10075;50.924;4.396;2023-04-03T08:20:40;6.40;99.90
19829;DHT22;10075;50.924;4.396;2023-04-03T08:23:07;6.40;99.90
19829;DHT22;10075;50.924;4.396;2023-04-03T08:25:37;6.50;99.90
19829;DHT22;10075;50.924;4.396;2023-04-03T08:28:05;6.50;99.90
19829;DHT22;10075;50.924;4.396;2023-04-03T08:30:32;6.60;99.90
19829;DHT22;10075;50.924;4.396;2023-04-03T08:33:00;6.70;99.90
19829;DHT22;10075;50.924;4.396;2023-04-03T08:35:27;6.80;99.90
19829;DHT22;10075;50.924;4.396;2023-04-03T08:37:55;6.80;99.90
19829;DHT22;10075;50.924;4.396;2023-04-03T08:40:22;6.80;99.90
19829;DHT22;10075;50.924;4.396;2023-04-03T08:42:58;6.70;99.90
19829;DHT22;10075;50.924;4.396;2023-04-03T08:45:41;6.80;99.90
19829;DHT22;10075;50.924;4.396;2023-04-03T08:48:13;6.80;99.90
19829;DHT22;10075;50.924;4.396;2023-04-03T08:50:43;7.00;99.90
19829;DHT22;10075;50.924;4.396;2023-04-03T08:53:14;7.00;99.90
19829;DHT22;10075;50.924;4.396;2023-04-03T08:55:43;7.20;99.90
19829;DHT22;10075;50.924;4.396;2023-04-03T08:58:15;7.40;99.90
19829;DHT22;10075;50.924;4.396;2023-04-03T09:00:46;7.50;99.90
19829;DHT22;10075;50.924;4.396;2023-04-03T09:03:16;7.50;99.90
19829;DHT22;10075;50.924;4.396;2023-04-03T09:05:47;7.60;99.90
19829;DHT22;10075;50.924;4.396;2023-04-03T09:08:22;7.70;99.90
19829;DHT22;10075;50.924;4.396;2023-04-03T09:10:58;7.80;99.90
19829;DHT22;10075;50.924;4.396;2023-04-03T09:13:32;7.90;99.90
19829;DHT22;10075;50.924;4.396;2023-04-03T09:16:02;8.00;99.90
19829;DHT22;10075;50.924;4.396;2023-04-03T09:18:35;8.10;99.90
19829;DHT22;10075;50.924;4.396;2023-04-03T09:21:11;8.10;99.90
19829;DHT22;10075;50.924;4.396;2023-04-03T09:23:43;8.20;99.90
19829;DHT22;10075;50.924;4.396;2023-04-03T09:26:15;8.10;99.90
19829;DHT22;10075;50.924;4.396;2023-04-03T09:28:46;8.20;99.90
19829;DHT22;10075;50.924;4.396;2023-04-03T09:31:20;8.20;99.90
19829;DHT22;10075;50.924;4.396;2023-04-03T09:33:49;8.30;99.90
19829;DHT22;10075;50.924;4.396;2023-04-03T09:36:39;8.30;99.90
19829;DHT22;10075;50.924;4.396;2023-04-03T09:39:11;8.20;99.90
19829;DHT22;10075;50.924;4.396;2023-04-03T09:41:38;8.20;99.90
19829;DHT22;10075;50.924;4.396;2023-04-03T09:44:20;8.40;99.90
19829;DHT22;10075;50.924;4.396;2023-04-03T09:46:47;8.50;99.90
19829;DHT22;10075;50.924;4.396;2023-04-03T09:49:15;8.50;99.90
19829;DHT22;10075;50.924;4.396;2023-04-03T09:51:43;8.40;99.90
19829;DHT22;10075;50.924;4.396;2023-04-03T09:54:35;8.40;99.90
19829;DHT22;10075;50.924;4.396;2023-04-03T09:57:08;8.50;99.90
19829;DHT22;10075;50.924;4.396;2023-04-03T09:59:43;8.60;99.90
19829;DHT22;10075;50.924;4.396;2023-04-03T10:02:30;8.70;99.90
19829;DHT22;10075;50.924;4.396;2023-04-03T10:04:59;8.80;99.90
19829;DHT22;10075;50.924;4.396;2023-04-03T10:07:28;8.80;99.90
19829;DHT22;10075;50.924;4.396;2023-04-03T10:09:56;8.80;99.90
19829;DHT22;10075;50.924;4.396;2023-04-03T10:12:24;8.80;99.90
19829;DHT22;10075;50.924;4.396;2023-04-03T10:14:57;8.80;99.90
19829;DHT22;10075;50.924;4.396;2023-04-03T10:17:36;8.90;99.90
19829;DHT22;10075;50.924;4.396;2023-04-03T10:20:11;9.00;99.90
19829;DHT22;10075;50.924;4.396;2023-04-03T10:22:48;9.10;99.90
19829;DHT22;10075;50.924;4.396;2023-04-03T10:25:23;9.20;99.90
19829;DHT22;10075;50.924;4.396;2023-04-03T10:27:55;9.30;99.90
19829;DHT22;10075;50.924;4.396;2023-04-03T10:30:34;9.30;99.90
19829;DHT22;10075;50.924;4.396;2023-04-03T10:33:18;9.40;99.90
19829;DHT22;10075;50.924;4.396;2023-04-03T10:35:53;9.50;99.90
19829;DHT22;10075;50.924;4.396;2023-04-03T10:38:31;9.40;99.90
19829;DHT22;10075;50.924;4.396;2023-04-03T10:41:04;9.60;99.90
19829;DHT22;10075;50.924;4.396;2023-04-03T10:43:36;9.80;99.90
19829;DHT22;10075;50.924;4.396;2023-04-03T10:46:11;9.80;99.90
19829;DHT22;10075;50.924;4.396;2023-04-03T10:48:53;9.70;99.90
19829;DHT22;10075;50.924;4.396;2023-04-03T10:51:27;9.80;99.90
19829;DHT22;10075;50.924;4.396;2023-04-03T10:54:04;9.90;99.90
19829;DHT22;10075;50.924;4.396;2023-04-03T10:56:37;10.00;99.90
19829;DHT22;10075;50.924;4.396;2023-04-03T10:59:17;9.80;99.90
19829;DHT22;10075;50.924;4.396;2023-04-03T11:01:49;9.80;99.90
19829;DHT22;10075;50.924;4.396;2023-04-03T11:04:18;9.90;99.90
19829;DHT22;10075;50.924;4.396;2023-04-03T11:06:50;9.90;99.90
19829;DHT22;10075;50.924;4.396;2023-04-03T11:09:24;9.90;99.90
19829;DHT22;10075;50.924;4.396;2023-04-03T11:11:55;10.00;99.90
19829;DHT22;10075;50.924;4.396;2023-04-03T11:14:27;10.20;99.90
19829;DHT22;10075;50.924;4.396;2023-04-03T11:17:04;10.20;99.90
19829;DHT22;10075;50.924;4.396;2023-04-03T11:19:35;10.20;99.90
19829;DHT22;10075;50.924;4.396;2023-04-03T11:22:13;10.30;99.90
19829;DHT22;10075;50.924;4.396;2023-04-03T11:24:51;10.40;99.90
19829;DHT22;10075;50.924;4.396;2023-04-03T11:27:22;10.50;99.90
19829;DHT22;10075;50.924;4.396;2023-04-03T11:29:55;10.40;99.90
19829;DHT22;10075;50.924;4.396;2023-04-03T11:32:51;10.00;99.00
19829;DHT22;10075;50.924;4.396;2023-04-03T11:35:23;10.10;99.20
19829;DHT22;10075;50.924;4.396;2023-04-03T11:37:52;10.00;99.00
19829;DHT22;10075;50.924;4.396;2023-04-03T11:40:24;10.10;98.60
19829;DHT22;10075;50.924;4.396;2023-04-03T11:42:54;10.30;98.30
19829;DHT22;10075;50.924;4.396;2023-04-03T11:45:32;10.50;97.80
19829;DHT22;10075;50.924;4.396;2023-04-03T11:48:02;10.60;98.50
19829;DHT22;10075;50.924;4.396;2023-04-03T11:50:47;10.70;98.20
19829;DHT22;10075;50.924;4.396;2023-04-03T11:53:34;10.70;98.20
19829;DHT22;10075;50.924;4.396;2023-04-03T11:56:03;10.80;98.30
19829;DHT22;10075;50.924;4.396;2023-04-03T11:58:32;10.80;98.90
19829;DHT22;10075;50.924;4.396;2023-04-03T12:01:08;10.90;99.10
19829;DHT22;10075;50.924;4.396;2023-04-03T12:04:10;10.90;99.70
19829;DHT22;10075;50.924;4.396;2023-04-03T12:07:02;11.10;99.00
19829;DHT22;10075;50.924;4.396;2023-04-03T12:12:39;11.00;98.70
19829;DHT22;10075;50.924;4.396;2023-04-03T12:15:22;11.00;97.50
19829;DHT22;10075;50.924;4.396;2023-04-03T12:17:50;10.80;97.40
19829;DHT22;10075;50.924;4.396;2023-04-03T12:23:30;10.70;96.10
19829;DHT22;10075;50.924;4.396;2023-04-03T12:26:06;10.80;96.70
19829;DHT22;10075;50.924;4.396;2023-04-03T12:28:48;10.70;96.10
19829;DHT22;10075;50.924;4.396;2023-04-03T12:31:16;10.70;96.60
19829;DHT22;10075;50.924;4.396;2023-04-03T12:34:01;10.70;96.30
19829;DHT22;10075;50.924;4.396;2023-04-03T12:36:39;10.80;95.80
19829;DHT22;10075;50.924;4.396;2023-04-03T12:39:33;10.80;95.10
19829;DHT22;10075;50.924;4.396;2023-04-03T12:44:58;11.00;94.50
19829;DHT22;10075;50.924;4.396;2023-04-03T12:47:31;11.20;95.10
19829;DHT22;10075;50.924;4.396;2023-04-03T12:50:13;11.40;94.40
19829;DHT22;10075;50.924;4.396;2023-04-03T12:52:46;11.40;93.10
19829;DHT22;10075;50.924;4.396;2023-04-03T12:55:18;11.20;92.60
19829;DHT22;10075;50.924;4.396;2023-04-03T12:57:46;11.10;91.90
19829;DHT22;10075;50.924;4.396;2023-04-03T13:00:22;11.20;91.90
19829;DHT22;10075;50.924;4.396;2023-04-03T13:02:49;11.20;92.50
19829;DHT22;10075;50.924;4.396;2023-04-03T13:05:18;11.30;92.10
19829;DHT22;10075;50.924;4.396;2023-04-03T13:07:49;11.40;91.60
19829;DHT22;10075;50.924;4.396;2023-04-03T13:10:18;11.50;91.70
19829;DHT22;10075;50.924;4.396;2023-04-03T13:12:48;11.60;91.90
19829;DHT22;10075;50.924;4.396;2023-04-03T13:15:18;11.70;90.00
19829;DHT22;10075;50.924;4.396;2023-04-03T13:17:45;11.70;89.50
19829;DHT22;10075;50.924;4.396;2023-04-03T13:20:18;11.60;89.20
19829;DHT22;10075;50.924;4.396;2023-04-03T13:22:54;11.70;89.60
19829;DHT22;10075;50.924;4.396;2023-04-03T13:25:26;11.70;90.00
19829;DHT22;10075;50.924;4.396;2023-04-03T13:27:54;11.80;90.10
19829;DHT22;10075;50.924;4.396;2023-04-03T13:30:26;11.90;90.10
19829;DHT22;10075;50.924;4.396;2023-04-03T13:32:54;11.90;89.40
19829;DHT22;10075;50.924;4.396;2023-04-03T13:35:31;12.00;90.50
19829;DHT22;10075;50.924;4.396;2023-04-03T13:38:01;12.10;89.00
19829;DHT22;10075;50.924;4.396;2023-04-03T13:40:30;12.10;87.60
19829;DHT22;10075;50.924;4.396;2023-04-03T13:43:03;12.00;86.20
19829;DHT22;10075;50.924;4.396;2023-04-03T13:45:32;11.80;86.30
19829;DHT22;10075;50.924;4.396;2023-04-03T13:48:10;11.70;87.90
19829;DHT22;10075;50.924;4.396;2023-04-03T13:50:57;11.70;88.40
19829;DHT22;10075;50.924;4.396;2023-04-03T13:53:25;11.70;90.80
19829;DHT22;10075;50.924;4.396;2023-04-03T13:56:07;11.40;91.50
19829;DHT22;10075;50.924;4.396;2023-04-03T13:58:36;11.30;92.10
19829;DHT22;10075;50.924;4.396;2023-04-03T14:01:10;11.20;92.50
19829;DHT22;10075;50.924;4.396;2023-04-03T14:03:43;11.40;92.50
19829;DHT22;10075;50.924;4.396;2023-04-03T14:06:13;11.50;91.00
19829;DHT22;10075;50.924;4.396;2023-04-03T14:08:41;11.80;91.20
19829;DHT22;10075;50.924;4.396;2023-04-03T14:11:14;11.70;90.10
19829;DHT22;10075;50.924;4.396;2023-04-03T14:13:42;11.70;90.50
19829;DHT22;10075;50.924;4.396;2023-04-03T14:16:13;11.90;89.50
19829;DHT22;10075;50.924;4.396;2023-04-03T14:18:42;12.10;89.00
19829;DHT22;10075;50.924;4.396;2023-04-03T14:21:11;12.20;86.20
19829;DHT22;10075;50.924;4.396;2023-04-03T14:23:38;12.30;85.10
19829;DHT22;10075;50.924;4.396;2023-04-03T14:26:11;12.20;80.70
19829;DHT22;10075;50.924;4.396;2023-04-03T14:28:39;11.90;82.20
19829;DHT22;10075;50.924;4.396;2023-04-03T14:31:06;12.10;83.00
19829;DHT22;10075;50.924;4.396;2023-04-03T14:33:33;12.30;84.00
19829;DHT22;10075;50.924;4.396;2023-04-03T14:36:10;12.40;85.30
19829;DHT22;10075;50.924;4.396;2023-04-03T14:38:39;12.50;85.10
19829;DHT22;10075;50.924;4.396;2023-04-03T14:41:09;12.60;85.60
19829;DHT22;10075;50.924;4.396;2023-04-03T14:43:40;12.60;84.60
19829;DHT22;10075;50.924;4.396;2023-04-03T14:46:13;12.70;84.70
19829;DHT22;10075;50.924;4.396;2023-04-03T14:48:42;12.80;83.50
19829;DHT22;10075;50.924;4.396;2023-04-03T14:51:11;13.00;79.50
19829;DHT22;10075;50.924;4.396;2023-04-03T14:53:40;13.70;79.90
19829;DHT22;10075;50.924;4.396;2023-04-03T14:56:13;14.90;78.60
19829;DHT22;10075;50.924;4.396;2023-04-03T14:58:43;16.10;75.60
19829;DHT22;10075;50.924;4.396;2023-04-03T15:01:11;17.60;72.30
19829;DHT22;10075;50.924;4.396;2023-04-03T15:03:40;19.00;68.00
19829;DHT22;10075;50.924;4.396;2023-04-03T15:06:09;20.10;63.20
19829;DHT22;10075;50.924;4.396;2023-04-03T15:08:37;20.80;59.90
19829;DHT22;10075;50.924;4.396;2023-04-03T15:11:07;21.20;57.30
19829;DHT22;10075;50.924;4.396;2023-04-03T15:13:34;21.40;56.80
19829;DHT22;10075;50.924;4.396;2023-04-03T15:16:04;21.90;55.50
19829;DHT22;10075;50.924;4.396;2023-04-03T15:18:37;22.30;53.90
19829;DHT22;10075;50.924;4.396;2023-04-03T15:21:05;22.70;53.20
19829;DHT22;10075;50.924;4.396;2023-04-03T15:23:33;23.00;52.30
19829;DHT22;10075;50.924;4.396;2023-04-03T15:26:01;23.40;51.50
19829;DHT22;10075;50.924;4.396;2023-04-03T15:28:31;23.90;50.70
19829;DHT22;10075;50.924;4.396;2023-04-03T15:31:00;23.90;50.70
19829;DHT22;10075;50.924;4.396;2023-04-03T15:33:29;24.20;48.80
19829;DHT22;10075;50.924;4.396;2023-04-03T15:35:56;24.50;47.70
19829;DHT22;10075;50.924;4.396;2023-04-03T15:38:24;24.50;46.70
19829;DHT22;10075;50.924;4.396;2023-04-03T15:40:51;24.20;48.30
19829;DHT22;10075;50.924;4.396;2023-04-03T15:43:18;24.30;47.00
19829;DHT22;10075;50.924;4.396;2023-04-03T15:45:46;24.20;46.20
19829;DHT22;10075;50.924;4.396;2023-04-03T15:48:13;24.00;46.00
19829;DHT22;10075;50.924;4.396;2023-04-03T15:50:42;23.90;45.90
19829;DHT22;10075;50.924;4.396;2023-04-03T15:53:10;23.80;45.80
19829;DHT22;10075;50.924;4.396;2023-04-03T15:55:38;23.60;45.20
19829;DHT22;10075;50.924;4.396;2023-04-03T15:58:05;23.60;47.00
19829;DHT22;10075;50.924;4.396;2023-04-03T16:00:34;23.80;46.50
19829;DHT22;10075;50.924;4.396;2023-04-03T16:03:05;23.90;46.00
19829;DHT22;10075;50.924;4.396;2023-04-03T16:05:36;24.10;45.60
19829;DHT22;10075;50.924;4.396;2023-04-03T16:08:06;24.40;44.90
19829;DHT22;10075;50.924;4.396;2023-04-03T16:10:34;24.50;45.50
19829;DHT22;10075;50.924;4.396;2023-04-03T16:13:01;24.40;45.00